Time;durP1;ratioP1;P1;durP2;ratioP2;P2;SDS_P1;SDS_P2;PMS_P1;PMS_P2;Temp;Humidity;BMP_temperature;BMP_pressure;BME280_temperature;BME280_humidity;BME280_pressure;Samples;Min_cycle;Max_cycle;Signal;HPM_P1;HPM_P2
2021/06/11 00:00:08;;;;;;;6.57;5.05;;;22.10;69.00;;;;;;2315015;54;21545;-72
2021/06/11 00:02:35;;;;;;;5.60;4.62;;;22.10;70.90;;;;;;2314549;54;21470;-69
2021/06/11 00:05:01;;;;;;;6.15;5.30;;;22.10;70.30;;;;;;2314353;54;21012;-67
2021/06/11 00:10:56;;;;;;;6.45;5.30;;;22.20;69.40;;;;;;2551711;53;20960;-70
2021/06/11 00:13:22;;;;;;;5.72;4.80;;;22.20;70.40;;;;;;2296155;54;20969;-69
2021/06/11 00:15:49;;;;;;;6.25;5.32;;;22.10;70.30;;;;;;2436931;53;21048;-67
2021/06/11 00:18:16;;;;;;;6.47;4.90;;;22.10;70.20;;;;;;2447804;53;21497;-72
2021/06/11 00:20:42;;;;;;;5.90;5.18;;;22.10;70.20;;;;;;2315748;54;20964;-71
2021/06/11 00:23:08;;;;;;;6.90;5.43;;;22.10;70.20;;;;;;2307845;54;20974;-70
2021/06/11 00:25:35;;;;;;;5.72;4.90;;;22.10;70.20;;;;;;2311465;54;20997;-70
2021/06/11 00:28:04;;;;;;;5.65;4.62;;;22.10;70.20;;;;;;2309615;54;20948;-68
2021/06/11 00:30:33;;;;;;;6.10;5.00;;;22.10;70.20;;;;;;2313015;54;20981;-67
2021/06/11 00:33:01;;;;;;;8.60;5.15;;;22.10;70.20;;;;;;2313358;54;20961;-67
2021/06/11 00:35:30;;;;;;;7.50;5.70;;;22.00;70.10;;;;;;2317580;54;21041;-65
2021/06/11 00:37:56;;;;;;;5.68;4.87;;;22.00;70.00;;;;;;2312236;54;20969;-67
2021/06/11 00:40:23;;;;;;;6.70;5.47;;;22.00;70.00;;;;;;2317799;54;21532;-67
2021/06/11 00:42:49;;;;;;;5.80;4.80;;;22.00;69.90;;;;;;2297711;54;21057;-70
2021/06/11 00:45:15;;;;;;;5.60;4.60;;;21.90;69.80;;;;;;2311124;54;21041;-67
2021/06/11 00:47:42;;;;;;;6.25;5.25;;;21.90;69.90;;;;;;2312591;54;21021;-71
2021/06/11 00:50:08;;;;;;;5.87;5.05;;;21.90;70.00;;;;;;2313736;54;21044;-65
2021/06/11 00:52:35;;;;;;;7.97;5.28;;;21.90;70.00;;;;;;2480570;53;20980;-71
2021/06/11 00:55:04;;;;;;;6.90;5.95;;;21.80;70.00;;;;;;2312398;54;21022;-67
2021/06/11 00:57:33;;;;;;;8.52;5.65;;;21.80;70.10;;;;;;2316774;54;21009;-67
2021/06/11 01:00:00;;;;;;;6.03;4.97;;;21.80;70.00;;;;;;2312293;54;20997;-69
2021/06/11 01:02:27;;;;;;;6.25;5.15;;;21.80;70.20;;;;;;2520874;53;21774;-71
2021/06/11 01:04:53;;;;;;;8.00;5.18;;;21.70;70.20;;;;;;2300082;54;20997;-67
2021/06/11 01:07:19;;;;;;;7.22;5.10;;;21.70;70.30;;;;;;2313331;54;20993;-72
2021/06/11 01:09:45;;;;;;;6.32;4.87;;;21.70;70.30;;;;;;2311796;54;20973;-70
2021/06/11 01:12:12;;;;;;;6.12;4.95;;;21.60;70.30;;;;;;2315120;54;21315;-72
2021/06/11 01:18:16;;;;;;;5.78;4.75;;;21.60;69.60;;;;;;2318195;54;20945;-71
2021/06/11 01:20:42;;;;;;;6.97;5.45;;;21.50;70.40;;;;;;2546420;53;21044;-74
2021/06/11 01:25:32;;;;;;;5.75;4.75;;;21.50;70.40;;;;;;2313740;54;21617;-69
2021/06/11 01:28:02;;;;;;;5.37;4.05;;;21.40;69.30;;;;;;2318512;54;21029;-67
2021/06/11 01:30:28;;;;;;;6.05;4.68;;;21.40;70.50;;;;;;2313234;54;21004;-66
2021/06/11 01:32:55;;;;;;;6.40;4.87;;;21.40;70.70;;;;;;2314085;54;20933;-68
2021/06/11 01:35:58;;;;;;;6.82;5.60;;;21.30;70.60;;;;;;2387883;53;20962;-73
2021/06/11 01:38:27;;;;;;;;;;;21.30;69.80;;;;;;2320093;54;21002;-67
2021/06/11 01:41:00;;;;;;;5.40;4.53;;;21.30;69.40;;;;;;2313485;54;20152;-67
2021/06/11 01:43:26;;;;;;;8.75;4.78;;;21.20;70.90;;;;;;2548709;53;21008;-69
2021/06/11 01:45:52;;;;;;;6.47;5.45;;;21.20;70.50;;;;;;2317886;54;21041;-74
2021/06/11 01:48:19;;;;;;;6.53;5.45;;;21.20;70.60;;;;;;2314073;54;21024;-67
2021/06/11 01:50:45;;;;;;;6.68;5.00;;;21.10;70.70;;;;;;2532176;53;21420;-68
2021/06/11 01:53:12;;;;;;;5.80;4.75;;;21.10;70.80;;;;;;2542162;53;21657;-73
2021/06/11 01:55:42;;;;;;;6.07;5.22;;;21.00;70.80;;;;;;2308081;54;20999;-67
2021/06/11 01:58:08;;;;;;;6.70;5.10;;;21.00;70.90;;;;;;2313249;54;20989;-69
2021/06/11 02:00:34;;;;;;;6.65;5.03;;;20.90;70.70;;;;;;2292741;54;21715;-67
2021/06/11 02:03:01;;;;;;;5.78;4.90;;;20.90;70.90;;;;;;2544737;53;20989;-67
2021/06/11 02:05:30;;;;;;;5.82;4.85;;;20.90;71.00;;;;;;2541606;53;20994;-67
2021/06/11 02:07:56;;;;;;;6.12;5.05;;;20.80;71.00;;;;;;2291324;56;21318;-70
2021/06/11 02:10:22;;;;;;;6.28;5.20;;;20.80;71.20;;;;;;2317001;54;21742;-68
2021/06/11 02:12:58;;;;;;;5.68;4.75;;;20.80;71.20;;;;;;2314814;54;21824;-72
2021/06/11 02:15:28;;;;;;;6.22;5.12;;;20.80;70.90;;;;;;2340425;54;21030;-71
2021/06/11 02:17:54;;;;;;;6.10;5.25;;;20.80;71.20;;;;;;2318412;54;21821;-68
2021/06/11 02:20:29;;;;;;;8.90;5.22;;;20.70;71.30;;;;;;2313838;54;20990;-67
2021/06/11 02:22:56;;;;;;;6.20;5.03;;;20.70;70.80;;;;;;2316932;54;20958;-69
2021/06/11 02:25:24;;;;;;;5.43;4.68;;;20.70;71.30;;;;;;2552255;53;21694;-67
2021/06/11 02:27:51;;;;;;;7.55;5.53;;;20.70;71.20;;;;;;2316786;54;21001;-72
2021/06/11 02:30:20;;;;;;;6.37;5.15;;;20.70;71.30;;;;;;2312313;54;21109;-67
2021/06/11 02:32:59;;;;;;;10.15;7.22;;;20.60;71.20;;;;;;2312927;54;21942;-67
2021/06/11 02:35:25;;;;;;;6.43;5.68;;;20.60;70.60;;;;;;2539060;53;21105;-73
2021/06/11 02:37:53;;;;;;;6.32;5.37;;;20.60;71.10;;;;;;2294739;54;21076;-70
2021/06/11 02:40:20;;;;;;;6.70;5.75;;;20.50;70.90;;;;;;2316203;54;21072;-68
2021/06/11 02:42:53;;;;;;;7.15;5.97;;;20.50;71.10;;;;;;2312350;54;21004;-72
2021/06/11 02:45:22;;;;;;;6.97;5.85;;;20.50;71.10;;;;;;2302548;54;20967;-69
2021/06/11 02:48:18;;;;;;;7.40;5.72;;;20.40;71.20;;;;;;2313108;54;20939;-72
2021/06/11 02:51:18;;;;;;;6.45;5.18;;;20.40;71.00;;;;;;2311365;54;20980;-67
2021/06/11 02:53:45;;;;;;;6.12;4.78;;;20.40;71.00;;;;;;2322435;54;21033;-67
2021/06/11 02:56:33;;;;;;;6.80;5.53;;;20.30;71.50;;;;;;2315557;54;20969;-69
2021/06/11 02:59:01;;;;;;;6.62;5.62;;;20.30;70.80;;;;;;2312479;54;21025;-67
2021/06/11 03:01:27;;;;;;;6.15;5.05;;;20.30;71.40;;;;;;2315093;54;21020;-67
2021/06/11 03:04:15;;;;;;;6.65;5.65;;;20.20;71.40;;;;;;2372080;54;21839;-70
2021/06/11 03:06:43;;;;;;;6.40;5.30;;;20.20;70.90;;;;;;2349542;53;20969;-70
2021/06/11 03:09:10;;;;;;;7.18;5.72;;;20.20;71.60;;;;;;2305882;54;20963;-68
2021/06/11 03:11:39;;;;;;;6.05;4.82;;;20.10;71.60;;;;;;2486815;53;20961;-72
2021/06/11 03:14:05;;;;;;;5.95;5.07;;;20.10;71.60;;;;;;2316584;54;21099;-70
2021/06/11 03:16:32;;;;;;;6.03;4.97;;;20.10;71.60;;;;;;2315960;54;20998;-72
2021/06/11 03:19:04;;;;;;;5.78;4.90;;;20.00;71.60;;;;;;2312996;54;21090;-70
2021/06/11 03:21:33;;;;;;;6.53;5.40;;;20.00;71.50;;;;;;2294531;54;21036;-71
2021/06/11 03:25:52;;;;;;;6.47;5.43;;;20.00;71.70;;;;;;2303056;54;20991;-67
2021/06/11 03:28:45;;;;;;;6.43;4.65;;;20.00;70.80;;;;;;2316517;54;20977;-68
2021/06/11 03:31:15;;;;;;;5.60;4.75;;;20.00;71.30;;;;;;2302914;54;21045;-72
2021/06/11 03:33:41;;;;;;;6.15;4.97;;;19.90;71.80;;;;;;2314115;54;20973;-67
2021/06/11 03:36:17;;;;;;;6.60;5.12;;;19.90;72.00;;;;;;2313854;54;21013;-68
2021/06/11 03:38:47;;;;;;;8.25;6.28;;;19.90;71.80;;;;;;2535198;53;20956;-67
2021/06/11 03:41:13;;;;;;;7.93;6.18;;;19.80;72.00;;;;;;2316311;54;20949;-69
2021/06/11 03:43:40;;;;;;;6.90;5.65;;;19.80;72.20;;;;;;2312851;54;20949;-72
2021/06/11 03:46:08;;;;;;;6.90;5.75;;;19.80;72.30;;;;;;2317117;54;20981;-67
2021/06/11 03:48:34;;;;;;;8.40;5.75;;;19.80;72.40;;;;;;2311887;54;21016;-67
2021/06/11 03:51:01;;;;;;;6.85;5.87;;;19.80;72.40;;;;;;2317279;54;21072;-70
2021/06/11 03:53:27;;;;;;;6.45;5.00;;;19.80;72.40;;;;;;2312233;54;20984;-71
2021/06/11 03:56:06;;;;;;;7.30;5.93;;;19.80;72.40;;;;;;2317427;54;20981;-66
2021/06/11 03:58:53;;;;;;;6.72;5.70;;;19.80;72.20;;;;;;2317361;54;20981;-66
2021/06/11 04:01:24;;;;;;;8.45;5.28;;;19.70;72.30;;;;;;2302489;54;20984;-66
2021/06/11 04:03:50;;;;;;;6.50;5.47;;;19.80;72.50;;;;;;2508046;53;20993;-66
2021/06/11 04:06:21;;;;;;;7.12;5.95;;;19.70;72.60;;;;;;2304409;54;21031;-66
2021/06/11 04:08:49;;;;;;;8.27;6.37;;;19.70;72.60;;;;;;2542144;53;21006;-68
2021/06/11 04:14:52;;;;;;;7.00;5.55;;;19.70;72.20;;;;;;2312872;54;20961;-72
2021/06/11 04:17:27;;;;;;;8.40;5.35;;;19.70;72.80;;;;;;2544301;53;21523;-66
2021/06/11 04:19:55;;;;;;;6.82;4.80;;;19.70;72.80;;;;;;2293620;54;20961;-66
2021/06/11 04:22:36;;;;;;;7.93;6.40;;;19.70;72.90;;;;;;2312951;54;21077;-66
2021/06/11 04:25:04;;;;;;;6.10;5.30;;;19.70;72.60;;;;;;2317405;54;21004;-70
2021/06/11 04:27:39;;;;;;;7.12;5.65;;;19.70;73.20;;;;;;2311898;54;21170;-67
2021/06/11 04:30:07;;;;;;;8.52;5.70;;;19.70;73.00;;;;;;2314252;54;21535;-68
2021/06/11 04:36:00;;;;;;;5.97;4.70;;;19.70;72.60;;;;;;2446978;53;21516;-66
2021/06/11 04:38:28;;;;;;;6.90;5.43;;;19.80;73.50;;;;;;2301852;54;21041;-68
2021/06/11 04:41:10;;;;;;;8.35;6.12;;;19.80;73.50;;;;;;2313660;54;21405;-69
2021/06/11 04:43:36;;;;;;;8.38;5.53;;;19.80;73.10;;;;;;2293126;55;20976;-70
2021/06/11 04:46:03;;;;;;;6.10;5.35;;;19.80;73.70;;;;;;2543159;53;21012;-69
2021/06/11 04:48:29;;;;;;;7.47;5.07;;;19.80;73.70;;;;;;2326517;54;20969;-68
2021/06/11 04:54:41;;;;;;;6.37;5.00;;;19.90;73.20;;;;;;2314435;54;20962;-71
2021/06/11 04:57:08;;;;;;;6.80;5.10;;;20.00;73.80;;;;;;2421932;53;20961;-66
2021/06/11 04:59:34;;;;;;;8.38;6.20;;;20.00;74.00;;;;;;2483876;53;21049;-71
2021/06/11 05:02:00;;;;;;;7.90;5.93;;;20.00;74.10;;;;;;2551122;53;21574;-69
2021/06/11 05:04:26;;;;;;;6.82;5.55;;;20.00;74.10;;;;;;2422644;54;21012;-65
2021/06/11 05:10:34;;;;;;;6.75;4.97;;;20.10;73.50;;;;;;2317276;54;20997;-67
2021/06/11 05:13:01;;;;;;;6.80;5.57;;;20.10;74.30;;;;;;2312664;54;20981;-66
2021/06/11 05:15:27;;;;;;;7.18;6.22;;;20.20;74.40;;;;;;2306113;54;20954;-66
2021/06/11 05:18:11;;;;;;;8.93;6.18;;;20.20;74.40;;;;;;2311849;54;21569;-68
2021/06/11 05:20:38;;;;;;;10.50;7.30;;;20.30;73.70;;;;;;2332098;53;21900;-66
2021/06/11 05:23:05;;;;;;;7.25;6.22;;;20.30;74.40;;;;;;2314927;54;20945;-67
2021/06/11 05:25:32;;;;;;;8.10;6.00;;;20.30;74.40;;;;;;2312290;54;20960;-70
2021/06/11 05:27:58;;;;;;;7.10;5.93;;;20.40;74.70;;;;;;2303937;54;21534;-66
2021/06/11 05:30:26;;;;;;;7.07;6.12;;;20.40;74.70;;;;;;2320816;54;21568;-67
2021/06/11 05:33:10;;;;;;;7.75;6.60;;;20.50;74.80;;;;;;2302033;54;21019;-66
2021/06/11 05:35:36;;;;;;;8.23;6.87;;;20.50;73.80;;;;;;2311909;54;21073;-69
2021/06/11 05:38:07;;;;;;;6.87;6.00;;;20.60;74.90;;;;;;2307175;54;21031;-68
2021/06/11 05:40:35;;;;;;;7.05;5.47;;;20.70;75.00;;;;;;2316201;54;20985;-71
2021/06/11 05:43:10;;;;;;;7.78;6.47;;;20.70;75.00;;;;;;2313696;54;20961;-70
2021/06/11 05:45:37;;;;;;;8.10;6.18;;;20.80;74.60;;;;;;2285382;55;21136;-67
2021/06/11 05:48:04;;;;;;;8.35;5.20;;;20.80;75.10;;;;;;2306297;54;21037;-71
2021/06/11 05:50:30;;;;;;;6.95;6.00;;;20.80;75.10;;;;;;2395819;53;21005;-68
2021/06/11 05:52:58;;;;;;;7.12;6.00;;;20.90;75.20;;;;;;2314528;54;20989;-72
2021/06/11 05:55:25;;;;;;;6.65;5.43;;;21.00;75.30;;;;;;2342473;54;21004;-66
2021/06/11 05:57:52;;;;;;;6.00;5.00;;;21.00;75.30;;;;;;2545033;53;20960;-67
2021/06/11 06:03:47;;;;;;;7.65;4.78;;;21.20;74.70;;;;;;2548944;53;21041;-66
2021/06/11 06:06:13;;;;;;;9.05;5.57;;;21.20;75.50;;;;;;2312005;54;21048;-67
2021/06/11 06:08:39;;;;;;;6.37;5.53;;;21.30;75.40;;;;;;2318082;54;21248;-71
2021/06/11 06:11:36;;;;;;;7.37;5.60;;;21.40;75.50;;;;;;2313528;54;21090;-69
2021/06/11 06:14:04;;;;;;;7.35;5.57;;;21.50;74.50;;;;;;2316341;54;20968;-67
2021/06/11 06:16:34;;;;;;;7.68;5.55;;;21.50;75.60;;;;;;2296902;54;21020;-66
2021/06/11 06:19:00;;;;;;;6.25;5.20;;;21.60;75.70;;;;;;2316999;54;20932;-67
2021/06/11 06:21:30;;;;;;;6.53;5.40;;;21.70;75.80;;;;;;2311743;54;20989;-67
2021/06/11 06:23:57;;;;;;;6.60;5.40;;;21.70;75.70;;;;;;2313294;54;21542;-67
2021/06/11 06:26:23;;;;;;;6.32;5.15;;;21.80;75.90;;;;;;2318353;54;20961;-69
2021/06/11 06:28:49;;;;;;;7.28;5.87;;;21.90;75.90;;;;;;2311615;54;21124;-67
2021/06/11 06:31:16;;;;;;;6.20;5.60;;;22.00;76.00;;;;;;2312352;54;21020;-67
2021/06/11 06:33:47;;;;;;;8.27;6.35;;;22.10;76.00;;;;;;2313197;54;21532;-69
2021/06/11 06:36:14;;;;;;;7.12;6.05;;;22.20;75.40;;;;;;2318172;55;20963;-71
2021/06/11 06:38:40;;;;;;;5.78;5.10;;;22.30;76.00;;;;;;2312931;54;20983;-73
2021/06/11 06:41:07;;;;;;;6.90;6.00;;;22.40;76.00;;;;;;2475290;53;21020;-67
2021/06/11 06:43:33;;;;;;;7.68;6.57;;;22.50;76.00;;;;;;2548033;53;21018;-67
2021/06/11 06:45:59;;;;;;;7.57;6.78;;;22.60;76.00;;;;;;2315479;54;20977;-67
2021/06/11 06:48:26;;;;;;;7.30;6.32;;;22.70;75.90;;;;;;2315451;54;21028;-67
2021/06/11 06:50:55;;;;;;;7.60;6.53;;;22.70;75.80;;;;;;2312399;54;20996;-67
2021/06/11 06:53:22;;;;;;;7.20;5.90;;;22.80;75.50;;;;;;2311537;54;21620;-72
2021/06/11 06:55:48;;;;;;;6.57;5.87;;;22.90;75.80;;;;;;2319643;54;21039;-72
2021/06/11 06:58:14;;;;;;;6.43;5.65;;;23.00;75.70;;;;;;2314692;54;20978;-67
2021/06/11 07:00:49;;;;;;;7.07;6.37;;;23.10;75.60;;;;;;2312889;54;20939;-68
2021/06/11 07:04:00;;;;;;;7.28;6.22;;;23.20;74.50;;;;;;2318191;54;20992;-67
2021/06/11 07:06:27;;;;;;;7.30;5.65;;;23.30;73.80;;;;;;2300433;54;21089;-75
2021/06/11 07:08:53;;;;;;;6.78;5.97;;;23.40;75.40;;;;;;2301894;53;21032;-68
2021/06/11 07:12:09;;;;;;;8.38;6.18;;;23.50;75.30;;;;;;2454642;53;1790708;-67
2021/06/11 07:14:36;;;;;;;6.70;5.82;;;23.60;73.40;;;;;;2314419;54;21088;-68
2021/06/11 07:20:25;;;;;;;6.82;5.57;;;23.80;73.30;;;;;;2466762;53;20960;-71
2021/06/11 07:22:53;;;;;;;6.80;5.72;;;23.90;74.90;;;;;;2316670;54;20960;-70
2021/06/11 07:25:19;;;;;;;8.32;6.00;;;23.90;74.50;;;;;;2389377;53;20995;-67
2021/06/11 07:27:48;;;;;;;7.47;6.30;;;24.10;74.90;;;;;;2314992;54;20951;-71
2021/06/11 07:30:15;;;;;;;6.68;5.62;;;24.10;74.90;;;;;;2314860;55;20939;-70
2021/06/11 07:32:45;;;;;;;7.72;5.72;;;24.30;75.10;;;;;;2332186;54;21452;-68
2021/06/11 07:35:12;;;;;;;6.28;5.68;;;24.30;74.80;;;;;;2311188;54;20950;-68
2021/06/11 07:37:39;;;;;;;6.82;6.03;;;24.40;74.60;;;;;;2318569;55;22114;-70
2021/06/11 07:40:08;;;;;;;7.05;6.35;;;24.50;74.50;;;;;;2313578;54;21013;-69
2021/06/11 07:42:44;;;;;;;6.57;5.68;;;24.60;73.70;;;;;;2316796;55;20965;-68
2021/06/11 07:45:11;;;;;;;7.30;5.72;;;24.70;73.00;;;;;;2314848;55;21393;-69
2021/06/11 07:48:31;;;;;;;6.32;5.65;;;24.80;74.10;;;;;;2295731;54;20966;-68
2021/06/11 07:50:57;;;;;;;6.80;5.75;;;24.80;72.20;;;;;;2313365;54;21868;-69
2021/06/11 08:00:26;;;;;;;6.93;5.95;;;25.10;72.00;;;;;;2388735;54;21521;-68
2021/06/11 08:02:55;;;;;;;5.97;5.35;;;25.10;73.80;;;;;;2310306;54;21032;-67
2021/06/11 08:05:23;;;;;;;7.53;6.37;;;25.20;73.70;;;;;;2554482;53;21071;-68
2021/06/11 08:11:17;;;;;;;6.18;5.47;;;25.30;71.80;;;;;;2306431;54;21019;-69
2021/06/11 08:13:44;;;;;;;7.12;6.28;;;25.40;73.80;;;;;;2311832;56;21052;-68
2021/06/11 08:16:11;;;;;;;6.65;5.95;;;25.50;73.80;;;;;;2315560;55;20986;-68
2021/06/11 08:18:37;;;;;;;8.73;7.00;;;25.50;73.50;;;;;;2313357;54;20934;-69
2021/06/11 08:21:22;;;;;;;7.00;6.30;;;25.60;73.20;;;;;;2330726;54;20967;-72
2021/06/11 08:23:48;;;;;;;7.20;6.50;;;25.70;71.30;;;;;;2352788;53;20959;-68
2021/06/11 08:26:15;;;;;;;6.97;6.15;;;25.70;73.20;;;;;;2318616;54;20959;-69
2021/06/11 08:28:41;;;;;;;6.85;6.15;;;25.80;73.10;;;;;;2555407;53;21465;-69
2021/06/11 08:31:08;;;;;;;6.45;5.80;;;25.90;72.90;;;;;;2555345;53;21014;-68
2021/06/11 08:34:19;;;;;;;7.87;6.78;;;25.90;72.90;;;;;;2317581;54;21081;-68
2021/06/11 08:36:46;;;;;;;6.60;5.90;;;26.00;71.10;;;;;;2407339;53;20967;-68
2021/06/11 08:39:40;;;;;;;7.53;6.57;;;26.10;72.80;;;;;;2314843;54;21028;-68
2021/06/11 08:42:11;;;;;;;7.12;5.80;;;26.20;70.60;;;;;;2555472;53;20960;-72
2021/06/11 08:44:37;;;;;;;8.13;7.10;;;26.30;71.40;;;;;;2316220;54;20988;-69
2021/06/11 08:47:05;;;;;;;7.30;6.57;;;26.30;71.80;;;;;;2316807;54;21083;-69
2021/06/11 08:49:38;;;;;;;8.55;6.53;;;26.30;71.60;;;;;;2312857;54;20987;-68
2021/06/11 08:52:05;;;;;;;6.87;6.18;;;26.40;70.60;;;;;;2318874;54;21014;-68
2021/06/11 08:54:31;;;;;;;6.87;6.15;;;26.50;71.70;;;;;;2310445;54;20990;-68
2021/06/11 08:57:28;;;;;;;7.12;5.85;;;26.50;71.80;;;;;;2552486;53;21036;-70
2021/06/11 08:59:54;;;;;;;6.45;5.78;;;26.60;69.90;;;;;;2314255;54;20931;-68
2021/06/11 09:02:22;;;;;;;7.72;6.87;;;26.70;71.70;;;;;;2403687;53;20992;-74
2021/06/11 09:05:01;;;;;;;7.07;6.37;;;26.70;71.20;;;;;;2311210;55;21015;-69
2021/06/11 09:07:29;;;;;;;6.55;5.75;;;26.80;69.50;;;;;;2560212;53;21107;-69
2021/06/11 09:10:07;;;;;;;6.90;6.20;;;26.80;71.00;;;;;;2317309;54;21116;-68
2021/06/11 09:12:41;;;;;;;13.90;6.37;;;26.90;70.40;;;;;;2298263;54;20991;-69
2021/06/11 09:15:11;;;;;;;8.20;6.18;;;27.00;70.20;;;;;;2373190;53;21072;-68
2021/06/11 09:17:45;;;;;;;6.87;5.80;;;27.00;70.00;;;;;;2321513;54;21031;-68
2021/06/11 09:20:31;;;;;;;7.28;6.00;;;27.10;69.70;;;;;;2318161;54;21003;-69
2021/06/11 09:23:00;;;;;;;7.25;6.53;;;27.10;68.90;;;;;;2321843;54;21035;-68
2021/06/11 09:25:34;;;;;;;6.70;6.00;;;27.20;70.10;;;;;;2315427;54;21421;-68
2021/06/11 09:28:17;;;;;;;7.93;7.12;;;27.20;69.50;;;;;;2448038;53;20986;-72
2021/06/11 09:30:56;;;;;;;7.20;6.50;;;27.20;68.80;;;;;;2315641;54;20998;-69
2021/06/11 09:33:24;;;;;;;8.90;6.62;;;27.30;68.50;;;;;;2310794;54;20960;-68
2021/06/11 09:35:56;;;;;;;7.37;6.57;;;27.40;70.40;;;;;;2287280;55;21530;-69
2021/06/11 09:38:32;;;;;;;8.38;7.28;;;27.40;69.90;;;;;;2283688;55;21659;-70
2021/06/11 09:41:08;;;;;;;7.22;6.37;;;27.50;68.40;;;;;;2309036;55;20979;-68
2021/06/11 09:43:34;;;;;;;7.22;6.53;;;27.50;68.40;;;;;;2305939;55;21569;-74
2021/06/11 09:46:09;;;;;;;9.25;6.28;;;27.50;69.70;;;;;;2307252;54;21582;-70
2021/06/11 09:48:46;;;;;;;8.30;6.95;;;27.60;69.60;;;;;;2307123;55;21062;-67
2021/06/11 09:51:16;;;;;;;7.28;6.57;;;27.60;69.10;;;;;;2421652;53;20981;-68
2021/06/11 09:53:42;;;;;;;6.93;6.22;;;27.70;69.10;;;;;;2304083;54;21519;-69
2021/06/11 09:56:30;;;;;;;7.32;6.57;;;27.70;69.90;;;;;;2546567;53;20966;-72
2021/06/11 09:58:59;;;;;;;6.93;6.22;;;27.80;68.10;;;;;;2308575;55;20948;-68
2021/06/11 10:01:40;;;;;;;6.95;6.25;;;27.90;69.90;;;;;;2308920;55;20975;-68
2021/06/11 10:04:06;;;;;;;7.50;6.80;;;27.90;68.10;;;;;;2315082;54;21855;-69
2021/06/11 10:06:32;;;;;;;7.32;6.62;;;28.00;69.80;;;;;;2302601;54;21062;-74
2021/06/11 10:08:59;;;;;;;7.62;6.82;;;28.00;69.60;;;;;;2306175;55;21706;-69
2021/06/11 10:11:25;;;;;;;7.30;6.53;;;28.10;69.40;;;;;;2546825;53;20954;-68
2021/06/11 10:14:09;;;;;;;7.03;6.32;;;28.10;69.20;;;;;;2457033;53;21016;-68
2021/06/11 10:17:00;;;;;;;6.90;6.20;;;28.20;67.30;;;;;;2288428;54;20970;-68
2021/06/11 10:20:05;;;;;;;6.90;6.20;;;28.30;67.30;;;;;;2287156;54;21379;-69
2021/06/11 10:22:31;;;;;;;7.10;6.25;;;28.30;67.00;;;;;;2309000;54;20997;-70
2021/06/11 10:24:57;;;;;;;7.15;6.20;;;28.40;69.40;;;;;;2303043;54;21162;-74
2021/06/11 10:27:23;;;;;;;6.82;6.00;;;28.50;69.10;;;;;;2306430;54;20991;-68
2021/06/11 10:29:50;;;;;;;6.75;5.90;;;28.50;68.70;;;;;;2305988;54;22257;-68
2021/06/11 10:32:16;;;;;;;6.78;6.07;;;28.60;68.60;;;;;;2545640;53;20979;-70
2021/06/11 10:35:00;;;;;;;7.05;6.07;;;28.60;68.50;;;;;;2308299;54;20987;-69
2021/06/11 10:37:42;;;;;;;7.75;6.62;;;28.70;65.90;;;;;;2283671;54;20999;-69
2021/06/11 10:40:30;;;;;;;6.28;5.68;;;28.70;66.20;;;;;;2306895;54;21453;-68
2021/06/11 10:43:26;;;;;;;6.32;5.68;;;28.80;65.70;;;;;;2307901;55;20979;-69
2021/06/11 10:46:32;;;;;;;6.30;5.20;;;28.90;65.60;;;;;;2314798;54;21005;-68
2021/06/11 10:49:11;;;;;;;7.40;5.53;;;28.90;65.40;;;;;;2356157;53;21031;-68
2021/06/11 10:51:46;;;;;;;6.70;5.28;;;29.00;66.50;;;;;;2311026;55;21040;-68
2021/06/11 10:54:31;;;;;;;6.03;5.37;;;29.00;67.00;;;;;;2307087;55;20991;-68
2021/06/11 10:57:18;;;;;;;5.75;5.15;;;29.00;64.60;;;;;;2311884;55;21438;-72
2021/06/11 10:59:48;;;;;;;5.68;4.65;;;29.20;64.00;;;;;;2310406;54;21266;-69
2021/06/11 11:02:16;;;;;;;5.75;4.60;;;29.20;66.00;;;;;;2305822;54;20939;-70
2021/06/11 11:04:47;;;;;;;5.55;4.37;;;29.20;66.60;;;;;;2310007;54;20959;-69
2021/06/11 11:07:28;;;;;;;5.28;4.35;;;29.30;66.50;;;;;;2316954;53;21003;-70
2021/06/11 11:10:05;;;;;;;5.62;4.62;;;29.40;65.10;;;;;;2305041;54;21128;-72
2021/06/11 11:13:00;;;;;;;5.05;4.32;;;29.50;64.80;;;;;;2309880;54;20979;-69
2021/06/11 11:15:34;;;;;;;4.55;4.03;;;29.50;64.40;;;;;;2547032;53;21298;-69
2021/06/11 11:18:39;;;;;;;6.50;3.70;;;29.60;65.00;;;;;;2346442;54;20991;-68
2021/06/11 11:21:28;;;;;;;4.40;3.70;;;29.60;64.10;;;;;;2307975;55;20979;-71
2021/06/11 11:23:57;;;;;;;5.32;4.00;;;29.70;63.70;;;;;;2306338;54;21007;-68
2021/06/11 11:26:48;;;;;;;4.85;4.20;;;29.70;65.70;;;;;;2308233;54;21880;-69
2021/06/11 11:29:16;;;;;;;4.57;3.77;;;29.80;63.50;;;;;;2532194;53;21465;-70
2021/06/11 11:32:19;;;;;;;5.15;4.03;;;29.90;65.70;;;;;;2309720;54;21337;-68
2021/06/11 11:34:46;;;;;;;4.50;3.87;;;30.00;63.00;;;;;;2306063;54;21103;-68
2021/06/11 11:37:13;;;;;;;4.22;3.58;;;30.00;65.50;;;;;;2303571;54;21020;-67
2021/06/11 11:39:40;;;;;;;4.40;3.42;;;30.00;64.90;;;;;;2292408;54;20986;-73
2021/06/11 11:42:07;;;;;;;4.95;3.37;;;30.10;64.70;;;;;;2304257;55;20951;-69
2021/06/11 11:44:33;;;;;;;4.20;3.40;;;30.10;64.60;;;;;;2308834;55;21509;-68
2021/06/11 11:47:00;;;;;;;4.40;3.35;;;30.10;64.30;;;;;;2510412;53;21247;-68
2021/06/11 11:49:38;;;;;;;3.40;2.40;;;30.10;63.80;;;;;;2307801;54;21052;-72
2021/06/11 11:52:15;;;;;;;3.17;2.47;;;30.20;60.90;;;;;;2310329;55;21013;-70
2021/06/11 11:54:41;;;;;;;3.53;2.75;;;30.20;63.60;;;;;;2303585;54;21991;-69
2021/06/11 12:00:35;;;;;;;4.65;2.58;;;30.40;60.40;;;;;;2307358;55;20958;-70
2021/06/11 12:03:01;;;;;;;3.37;2.47;;;30.40;63.50;;;;;;2306335;54;20939;-71
2021/06/11 12:05:27;;;;;;;3.80;2.85;;;30.40;63.00;;;;;;2307293;54;21547;-69
2021/06/11 12:11:21;;;;;;;3.80;2.55;;;30.50;60.20;;;;;;2546561;54;21027;-69
2021/06/11 12:13:48;;;;;;;3.50;2.42;;;30.60;63.10;;;;;;2307033;54;20980;-73
2021/06/11 12:16:15;;;;;;;4.32;3.00;;;30.60;62.70;;;;;;2307458;54;20983;-69
2021/06/11 12:18:43;;;;;;;3.97;2.78;;;30.70;62.10;;;;;;2307341;54;21566;-69
2021/06/11 12:21:10;;;;;;;3.30;2.58;;;30.70;61.80;;;;;;2309158;54;21368;-68
2021/06/11 12:23:36;;;;;;;3.42;2.78;;;30.70;61.60;;;;;;2305594;54;21879;-68
2021/06/11 12:26:03;;;;;;;4.07;2.80;;;30.70;61.70;;;;;;2307784;54;21445;-69
2021/06/11 12:28:29;;;;;;;4.87;2.55;;;30.80;61.40;;;;;;2364636;53;21505;-69
2021/06/11 12:30:56;;;;;;;3.40;2.50;;;30.80;60.90;;;;;;2309811;54;21048;-69
2021/06/11 12:33:23;;;;;;;4.70;2.70;;;30.80;60.80;;;;;;2305306;54;20959;-68
2021/06/11 12:35:50;;;;;;;4.20;2.50;;;30.80;60.70;;;;;;2551727;53;21027;-69
2021/06/11 12:38:31;;;;;;;4.00;2.85;;;30.90;60.90;;;;;;2308026;54;21485;-72
2021/06/11 12:40:59;;;;;;;4.18;2.83;;;30.90;58.40;;;;;;2308694;54;21013;-72
2021/06/11 12:44:14;;;;;;;3.75;2.33;;;30.90;60.70;;;;;;2309361;54;21088;-70
2021/06/11 12:47:13;;;;;;;3.20;2.55;;;31.00;60.50;;;;;;2552821;53;21547;-71
2021/06/11 12:49:41;;;;;;;4.37;2.60;;;31.10;58.30;;;;;;2286473;54;20967;-70
2021/06/11 12:52:07;;;;;;;3.85;2.65;;;31.10;61.00;;;;;;2286582;54;21962;-68
2021/06/11 12:54:35;;;;;;;3.60;2.50;;;31.10;60.80;;;;;;2309239;54;20959;-74
2021/06/11 12:57:14;;;;;;;4.18;2.60;;;31.20;60.30;;;;;;2394481;54;20959;-69
2021/06/11 12:59:44;;;;;;;3.35;2.60;;;31.20;57.40;;;;;;2311727;54;21001;-70
2021/06/11 13:02:14;;;;;;;3.30;2.30;;;31.20;59.60;;;;;;2310598;55;20959;-73
2021/06/11 13:04:41;;;;;;;3.95;2.60;;;31.20;59.60;;;;;;2518241;53;21077;-72
2021/06/11 13:07:07;;;;;;;3.62;2.67;;;31.20;59.50;;;;;;2351411;53;21005;-73
2021/06/11 13:09:34;;;;;;;3.85;2.80;;;31.20;59.20;;;;;;2306041;54;21382;-70
2021/06/11 13:12:01;;;;;;;3.33;2.30;;;31.10;58.70;;;;;;2310028;55;21475;-73
2021/06/11 13:14:27;;;;;;;3.70;2.50;;;31.10;58.60;;;;;;2306131;54;20989;-69
2021/06/11 13:16:53;;;;;;;3.60;2.60;;;31.10;58.60;;;;;;2294651;54;21022;-71
2021/06/11 13:19:20;;;;;;;3.62;2.37;;;31.10;58.60;;;;;;2313259;54;22052;-70
2021/06/11 13:21:55;;;;;;;3.40;2.50;;;31.00;58.50;;;;;;2302174;54;21937;-69
2021/06/11 13:24:21;;;;;;;3.90;2.70;;;31.00;56.70;;;;;;2310724;54;21006;-72
2021/06/11 13:26:48;;;;;;;3.65;2.45;;;30.90;58.50;;;;;;2311046;54;20995;-72
2021/06/11 13:29:18;;;;;;;4.00;2.37;;;30.90;58.70;;;;;;2317497;54;20940;-69
2021/06/11 13:31:47;;;;;;;3.62;2.72;;;30.90;58.10;;;;;;2305088;54;20955;-69
2021/06/11 13:34:13;;;;;;;3.22;2.37;;;30.90;58.40;;;;;;2313766;54;20957;-75
2021/06/11 13:36:40;;;;;;;2.95;2.17;;;30.90;59.00;;;;;;2310922;54;21062;-76
2021/06/11 13:39:18;;;;;;;3.50;2.70;;;31.00;59.10;;;;;;2303880;54;21087;-77
2021/06/11 13:42:00;;;;;;;3.05;2.20;;;31.10;56.70;;;;;;2316434;55;21054;-71
2021/06/11 13:44:29;;;;;;;3.50;2.12;;;31.10;57.10;;;;;;2308577;55;20983;-71
2021/06/11 13:46:55;;;;;;;5.00;2.58;;;31.20;59.10;;;;;;2309207;54;21022;-74
2021/06/11 13:49:22;;;;;;;3.45;2.60;;;31.20;58.80;;;;;;2312102;54;21033;-72
2021/06/11 13:51:48;;;;;;;3.33;2.20;;;31.30;58.70;;;;;;2530960;53;20953;-70
2021/06/11 13:54:16;;;;;;;3.47;2.35;;;31.40;58.70;;;;;;2310703;54;20957;-73
2021/06/11 13:56:44;;;;;;;3.25;2.40;;;31.40;58.40;;;;;;2502274;53;20955;-75
2021/06/11 13:59:10;;;;;;;4.25;2.92;;;31.50;58.50;;;;;;2286142;54;20999;-76